KCHA/CHA METAR and TAF weather

Enter ICAO airport designator
Station Type Date Time Source
KCHA METAR 2020/01/19 02:53 UTC NOAA

KCHA 190253Z 00000KT 2SM BR BKN005 BKN020 09/09 A3010 RMK AO2 SLP194 60000 T00940094 58003


Station Type Date Time Source
KCHA Decoded METAR 2020/01/19 02:53 UTC NOAA

LOVELL FIELD, TN, United States (KCHA) 35-02N 085-12W 210M
Jan 18, 2020 - 09:53 PM EST / 2020.01.19 0253 UTC
Wind: Calm:0
Visibility: 2 mile(s):0
Sky conditions: mostly cloudy
Weather: mist
Temperature: 48.9 F (9.4 C)
Dew Point: 48.9 F (9.4 C)
Relative Humidity: 100%
Pressure (altimeter): 30.1 in. Hg (1019 hPa)
Pressure tendency: 0.01 inches (0.3 hPa) lower than three hours ago
ob: KCHA 190253Z 00000KT 2SM BR BKN005 BKN020 09/09 A3010 RMK AO2 SLP194 60000 T00940094 58003
cycle: 3

Station Type Date Time Source
KCHA TAF 2020/01/19 03:58 UTC NOAA

TAF
AMD KCHA 190258Z 1903/1924 VRB03KT 3SM BR BKN005 OVC015
FM190400 28006KT P6SM BKN015
FM190700 30007KT P6SM BKN035
FM191000 31008KT P6SM SCT250

Example: see airport list